Jonestown, Texas
Current Conditions -  °F | °C
As of 3:55 AM on Wednesday 26 Nov 2014 (Local Time) from KRYW Reporting Station
Clear Clear  
Wind Chill:   Ceiling: Unl
Heat Index:   Visibility: 10mi
Dew Point: -1°   Wind: 7mph
Humidity: 53%   Direction: 230°SW
Pressure: 30.16"   Gusts: NA
Location:  30.4521°N, 97.9683°W
Report Text: KRYW 260955Z AUTO 23006KT 10SM CLR 08/M01 A3016 RMK AO2 T00791012
Loading
Personal Weather Stations






























Interactive Weather Map New forecast layout! Learn more

10-Day Weather Forecast

Advertisements
Track Severe Weather on mobile